createdAt,value
2023-09-28T00:02:39.018Z,4.55
2023-09-28T00:05:25.323Z,4.57
2023-09-28T00:08:11.487Z,4.43
2023-09-28T00:10:58.009Z,4.60
2023-09-28T00:13:43.880Z,4.22
2023-09-28T00:16:29.422Z,4.30
2023-09-28T00:19:15.979Z,4.47
2023-09-28T00:22:02.361Z,4.50
2023-09-28T00:24:48.094Z,4.60
2023-09-28T00:27:34.068Z,5.38
2023-09-28T00:30:24.226Z,4.70
2023-09-28T00:33:09.991Z,5.05
2023-09-28T00:35:56.861Z,5.03
2023-09-28T00:38:42.770Z,5.03
2023-09-28T00:41:29.718Z,4.78
2023-09-28T00:44:16.798Z,4.90
2023-09-28T00:47:03.987Z,4.70
2023-09-28T00:49:51.136Z,4.80
2023-09-28T00:52:40.407Z,4.45
2023-09-28T00:58:13.540Z,5.07
2023-09-28T01:01:02.085Z,5.22
2023-09-28T01:03:49.810Z,5.45
2023-09-28T01:06:36.696Z,5.80
2023-09-28T01:09:26.367Z,6.40
2023-09-28T01:12:14.085Z,6.10
2023-09-28T01:15:01.396Z,5.90
2023-09-28T01:17:47.168Z,6.25
2023-09-28T01:20:36.498Z,6.00
2023-09-28T01:23:22.649Z,5.18
2023-09-28T01:26:08.943Z,5.28
2023-09-28T01:28:55.606Z,5.30
2023-09-28T01:31:41.733Z,5.70
2023-09-28T01:34:27.761Z,5.57
2023-09-28T01:37:13.544Z,6.10
2023-09-28T01:40:01.736Z,6.85
2023-09-28T01:42:47.641Z,6.13
2023-09-28T01:45:34.820Z,5.65
2023-09-28T01:48:21.358Z,5.70
2023-09-28T01:51:07.278Z,5.55
2023-09-28T01:53:53.561Z,6.90
2023-09-28T01:56:40.264Z,6.22
2023-09-28T01:59:26.429Z,5.88
2023-09-28T02:02:12.542Z,5.75
2023-09-28T02:04:59.220Z,5.43
2023-09-28T02:07:45.966Z,5.70
2023-09-28T02:10:31.842Z,5.10
2023-09-28T02:13:17.516Z,5.28
2023-09-28T02:16:03.104Z,4.80
2023-09-28T02:18:48.685Z,4.10
2023-09-28T02:21:35.018Z,5.07
2023-09-28T02:24:20.526Z,4.57
2023-09-28T02:27:07.311Z,4.72
2023-09-28T02:29:53.824Z,4.20
2023-09-28T02:32:46.099Z,4.50
2023-09-28T02:35:32.667Z,4.57
2023-09-28T02:38:18.306Z,4.75
2023-09-28T02:41:05.376Z,4.30
2023-09-28T02:43:54.044Z,4.72
2023-09-28T02:46:40.570Z,4.63
2023-09-28T02:49:28.126Z,4.40
2023-09-28T02:52:14.651Z,4.82
2023-09-28T02:55:03.917Z,5.00
2023-09-28T02:57:53.371Z,4.47
2023-09-28T03:03:26.399Z,3.85
2023-09-28T03:06:13.713Z,4.18
2023-09-28T03:09:00.111Z,4.45
2023-09-28T03:11:47.230Z,4.28
2023-09-28T03:14:33.969Z,4.07
2023-09-28T03:17:19.996Z,4.90
2023-09-28T03:20:16.489Z,4.60
2023-09-28T03:23:03.719Z,4.32
2023-09-28T03:25:49.378Z,4.50
2023-09-28T03:28:35.518Z,4.30
2023-09-28T03:31:21.719Z,4.72
2023-09-28T03:34:08.454Z,4.40
2023-09-28T03:36:54.779Z,4.20
2023-09-28T03:39:40.740Z,4.68
2023-09-28T03:42:27.358Z,4.22
2023-09-28T03:45:16.059Z,3.97
2023-09-28T03:48:02.189Z,4.90
2023-09-28T03:50:48.262Z,4.25
2023-09-28T03:53:41.013Z,5.28
2023-09-28T03:56:26.888Z,4.57
2023-09-28T03:59:13.120Z,4.38
2023-09-28T04:01:59.226Z,4.40
2023-09-28T04:04:45.458Z,4.95
2023-09-28T04:07:31.268Z,4.82
2023-09-28T04:10:20.635Z,4.63
2023-09-28T04:13:09.955Z,4.50
2023-09-28T04:15:55.700Z,5.25
2023-09-28T04:18:42.363Z,3.78
2023-09-28T04:21:28.458Z,4.47
2023-09-28T04:24:14.309Z,4.78
2023-09-28T04:27:00.418Z,4.60
2023-09-28T04:29:46.370Z,4.50
2023-09-28T04:32:32.793Z,4.50
2023-09-28T04:35:18.976Z,4.72
2023-09-28T04:38:05.306Z,4.85
2023-09-28T04:40:52.075Z,5.15
2023-09-28T04:43:37.677Z,5.00
2023-09-28T04:46:23.581Z,5.05
2023-09-28T04:49:10.381Z,4.65
2023-09-28T04:51:56.731Z,4.45
2023-09-28T04:54:43.200Z,4.35
2023-09-28T04:57:28.924Z,4.25
2023-09-28T05:00:18.068Z,4.55
2023-09-28T05:03:04.896Z,5.18
2023-09-28T05:05:51.997Z,4.90
2023-09-28T05:08:38.608Z,5.25
2023-09-28T05:11:24.333Z,4.68
2023-09-28T05:14:10.924Z,5.18
2023-09-28T05:16:57.366Z,4.25
2023-09-28T05:19:43.490Z,4.47
2023-09-28T05:22:32.181Z,4.15
2023-09-28T05:25:18.208Z,4.25
2023-09-28T05:28:04.562Z,4.03
2023-09-28T05:30:50.370Z,4.40
2023-09-28T05:33:36.005Z,4.07
2023-09-28T05:36:24.546Z,4.35
2023-09-28T05:39:12.055Z,4.30
2023-09-28T05:41:58.235Z,3.90
2023-09-28T05:44:43.895Z,4.90
2023-09-28T05:47:29.615Z,3.85
2023-09-28T05:50:16.773Z,4.60
2023-09-28T05:53:04.696Z,3.83
2023-09-28T05:55:54.338Z,4.13
2023-09-28T05:58:39.995Z,4.28
2023-09-28T06:01:26.658Z,3.72
2023-09-28T06:04:13.310Z,4.78
2023-09-28T06:06:59.510Z,4.00
2023-09-28T06:09:46.265Z,3.97
2023-09-28T06:12:31.972Z,4.78
2023-09-28T06:15:19.137Z,4.82
2023-09-28T06:18:05.365Z,4.18
2023-09-28T06:20:52.040Z,4.53
2023-09-28T06:23:38.331Z,4.32
2023-09-28T06:26:38.716Z,4.30
2023-09-28T06:29:25.737Z,4.57
2023-09-28T06:32:13.142Z,4.68
2023-09-28T06:34:59.388Z,4.32
2023-09-28T06:37:46.204Z,4.15
2023-09-28T06:40:32.628Z,5.05
2023-09-28T06:43:18.454Z,5.03
2023-09-28T06:46:05.038Z,4.30
2023-09-28T06:48:52.482Z,4.30
2023-09-28T06:51:38.732Z,4.57
2023-09-28T06:54:24.799Z,4.43
2023-09-28T06:57:11.028Z,5.03
2023-09-28T06:59:56.612Z,4.50
2023-09-28T07:02:47.424Z,4.72
2023-09-28T07:05:35.948Z,3.72
2023-09-28T07:08:21.983Z,4.70
2023-09-28T07:11:08.209Z,4.15
2023-09-28T07:13:54.938Z,4.57
2023-09-28T07:16:41.078Z,4.38
2023-09-28T07:19:27.816Z,4.25
2023-09-28T07:22:14.749Z,3.70
2023-09-28T07:25:00.814Z,4.95
2023-09-28T07:27:50.719Z,4.78
2023-09-28T07:30:37.183Z,4.50
2023-09-28T07:33:23.089Z,3.80
2023-09-28T07:36:09.244Z,4.25
2023-09-28T07:38:56.402Z,4.15
2023-09-28T07:41:42.435Z,4.13
2023-09-28T07:44:29.541Z,4.68
2023-09-28T07:47:16.028Z,4.22
2023-09-28T07:50:24.484Z,5.18
2023-09-28T07:57:05.604Z,5.53
2023-09-28T08:00:01.542Z,4.28
2023-09-28T08:02:57.445Z,4.82
2023-09-28T08:05:43.642Z,4.68
2023-09-28T08:08:29.826Z,4.45
2023-09-28T08:11:23.999Z,4.20
2023-09-28T08:14:15.819Z,5.10
2023-09-28T08:17:01.894Z,4.65
2023-09-28T08:19:49.326Z,4.93
2023-09-28T08:22:37.213Z,6.30
2023-09-28T08:25:23.206Z,5.40
2023-09-28T08:28:09.043Z,5.85
2023-09-28T08:30:57.823Z,5.80
2023-09-28T08:33:44.493Z,5.30
2023-09-28T08:36:31.530Z,5.15
2023-09-28T08:39:18.854Z,5.47
2023-09-28T08:42:08.590Z,5.13
2023-09-28T08:48:13.039Z,4.13
2023-09-28T08:56:24.963Z,4.10
2023-09-28T08:59:12.242Z,3.88
2023-09-28T09:02:01.525Z,5.03
2023-09-28T09:04:47.652Z,5.15
2023-09-28T09:07:33.619Z,4.90
2023-09-28T09:10:23.632Z,4.90
2023-09-28T09:13:20.196Z,4.70
2023-09-28T09:16:05.762Z,5.00
2023-09-28T09:18:56.309Z,5.30
2023-09-28T09:21:45.514Z,5.47
2023-09-28T09:24:32.014Z,5.97
2023-09-28T09:27:30.680Z,6.07
2023-09-28T09:30:16.924Z,5.05
2023-09-28T09:33:05.784Z,5.47
2023-09-28T09:35:55.000Z,5.13
2023-09-28T09:38:44.574Z,5.53
2023-09-28T09:41:32.226Z,5.18
2023-09-28T09:44:21.881Z,5.13
2023-09-28T09:47:08.102Z,4.70
2023-09-28T09:49:55.265Z,5.43
2023-09-28T09:52:43.974Z,5.28
2023-09-28T09:55:31.071Z,5.23
2023-09-28T09:58:23.858Z,5.55
2023-09-28T10:01:15.118Z,5.28
2023-09-28T10:04:05.820Z,4.82
2023-09-28T10:06:55.211Z,4.97
2023-09-28T10:12:29.176Z,3.70
2023-09-28T10:15:17.641Z,4.50
2023-09-28T10:18:06.685Z,3.72
2023-09-28T10:23:38.840Z,3.45
2023-09-28T10:26:32.787Z,4.32
2023-09-28T10:29:30.268Z,3.72
2023-09-28T10:32:33.023Z,3.33
2023-09-28T10:35:22.351Z,3.00
2023-09-28T10:38:25.568Z,3.67
2023-09-28T10:41:11.945Z,3.47
2023-09-28T10:43:58.346Z,3.13
2023-09-28T10:46:49.946Z,3.53
2023-09-28T10:49:42.072Z,3.33
2023-09-28T10:52:30.360Z,3.35
2023-09-28T10:55:16.680Z,3.95
2023-09-28T10:58:05.935Z,3.28
2023-09-28T11:00:51.623Z,3.70
2023-09-28T11:03:40.437Z,3.85
2023-09-28T11:06:26.873Z,3.22
2023-09-28T11:09:14.036Z,3.45
2023-09-28T11:11:59.775Z,3.53
2023-09-28T11:14:45.672Z,3.72
2023-09-28T11:17:32.007Z,3.53
2023-09-28T11:20:18.679Z,2.92
2023-09-28T11:23:06.132Z,3.70
2023-09-28T11:25:52.458Z,2.80
2023-09-28T11:28:39.577Z,3.30
2023-09-28T11:31:28.529Z,2.92
2023-09-28T11:34:15.299Z,2.88
2023-09-28T11:37:01.684Z,3.08
2023-09-28T11:39:48.839Z,3.20
2023-09-28T11:42:42.157Z,3.33
2023-09-28T11:45:37.284Z,3.20
2023-09-28T11:48:24.623Z,3.13
2023-09-28T11:51:12.671Z,2.72
2023-09-28T11:53:58.848Z,2.88
2023-09-28T11:56:51.833Z,3.00
2023-09-28T11:59:41.039Z,2.90
2023-09-28T12:02:27.927Z,2.88
2023-09-28T12:05:15.999Z,2.63
2023-09-28T12:08:03.033Z,2.80
2023-09-28T12:10:50.404Z,2.97
2023-09-28T12:13:36.750Z,2.25
2023-09-28T12:16:24.248Z,2.53
2023-09-28T12:19:11.222Z,2.50
2023-09-28T12:21:57.348Z,2.50
2023-09-28T12:24:44.386Z,2.30
2023-09-28T12:27:31.340Z,2.47
2023-09-28T12:30:23.127Z,2.13
2023-09-28T12:33:10.492Z,2.80
2023-09-28T12:36:00.604Z,3.10
2023-09-28T12:38:49.355Z,2.95
2023-09-28T12:41:35.384Z,2.38
2023-09-28T12:44:24.044Z,3.67
2023-09-28T12:49:57.098Z,2.20
2023-09-28T12:52:45.021Z,2.70
2023-09-28T12:55:36.133Z,2.73
2023-09-28T12:58:24.830Z,2.53
2023-09-28T13:01:11.578Z,2.35
2023-09-28T13:04:01.753Z,2.40
2023-09-28T13:06:48.121Z,2.00
2023-09-28T13:09:34.545Z,2.22
2023-09-28T13:12:21.030Z,1.80
2023-09-28T13:15:08.815Z,1.58
2023-09-28T13:17:54.955Z,1.65
2023-09-28T13:20:41.331Z,1.92
2023-09-28T13:23:27.900Z,1.83
2023-09-28T13:26:15.149Z,2.17
2023-09-28T13:29:03.128Z,2.70
2023-09-28T13:31:49.875Z,2.47
2023-09-28T13:34:36.894Z,2.60
2023-09-28T13:37:22.793Z,2.13
2023-09-28T13:40:16.804Z,1.90
2023-09-28T13:43:06.712Z,2.08
2023-09-28T13:45:53.167Z,1.52
2023-09-28T13:48:39.430Z,2.25
2023-09-28T13:51:25.051Z,2.58
2023-09-28T13:54:11.232Z,2.20
2023-09-28T13:57:02.612Z,2.00
2023-09-28T13:59:54.555Z,2.15
2023-09-28T14:02:42.873Z,2.00
2023-09-28T14:05:29.711Z,1.90
2023-09-28T14:08:16.147Z,1.90
2023-09-28T14:11:08.812Z,2.20
2023-09-28T14:13:54.698Z,2.00
2023-09-28T14:16:42.284Z,2.35
2023-09-28T14:19:28.369Z,1.85
2023-09-28T14:22:14.307Z,1.67
2023-09-28T14:25:02.433Z,1.63
2023-09-28T14:27:49.154Z,1.60
2023-09-28T14:30:36.715Z,2.00
2023-09-28T14:33:23.239Z,2.10
2023-09-28T14:36:09.526Z,1.92
2023-09-28T14:38:55.248Z,2.10
2023-09-28T14:41:42.539Z,2.00
2023-09-28T14:44:30.521Z,1.83
2023-09-28T14:47:16.606Z,1.85
2023-09-28T14:50:03.979Z,1.98
2023-09-28T14:52:49.984Z,2.17
2023-09-28T14:55:39.204Z,5.35
2023-09-28T14:58:27.386Z,4.78
2023-09-28T15:01:14.756Z,3.47
2023-09-28T15:04:00.588Z,2.20
2023-09-28T15:06:47.192Z,1.80
2023-09-28T15:09:33.916Z,1.80
2023-09-28T15:12:26.276Z,1.60
2023-09-28T15:15:11.865Z,1.80
2023-09-28T15:17:59.194Z,1.33
2023-09-28T15:20:46.018Z,1.40
2023-09-28T15:23:32.023Z,1.48
2023-09-28T15:26:19.543Z,1.25
2023-09-28T15:29:10.585Z,1.90
2023-09-28T15:31:56.272Z,6.68
2023-09-28T15:34:43.509Z,6.50
2023-09-28T15:37:29.897Z,6.53
2023-09-28T15:40:16.335Z,8.13
2023-09-28T15:43:03.238Z,6.57
2023-09-28T15:45:50.488Z,8.57
2023-09-28T15:48:36.472Z,11.32
2023-09-28T15:51:22.027Z,11.07
2023-09-28T15:54:08.449Z,7.13
2023-09-28T15:56:55.959Z,7.10
2023-09-28T15:59:42.413Z,6.60
2023-09-28T16:02:29.043Z,4.60
2023-09-28T16:05:15.240Z,5.95
2023-09-28T16:08:01.561Z,5.10
2023-09-28T16:10:47.439Z,6.97
2023-09-28T16:13:33.945Z,4.80
2023-09-28T16:16:21.353Z,5.43
2023-09-28T16:19:07.563Z,5.90
2023-09-28T16:21:55.231Z,5.75
2023-09-28T16:24:40.980Z,4.20
2023-09-28T16:27:26.455Z,7.70
2023-09-28T16:30:12.756Z,5.57
2023-09-28T16:32:59.025Z,4.07
2023-09-28T16:35:45.125Z,2.85
2023-09-28T16:38:31.262Z,2.58
2023-09-28T16:41:18.425Z,6.43
2023-09-28T16:44:04.452Z,7.70
2023-09-28T16:46:51.308Z,4.97
2023-09-28T16:49:36.942Z,4.25
2023-09-28T16:52:23.001Z,4.00
2023-09-28T16:55:10.574Z,3.35
2023-09-28T16:57:56.833Z,2.83
2023-09-28T17:00:42.636Z,2.25
2023-09-28T17:03:29.257Z,1.90
2023-09-28T17:06:17.314Z,1.98
2023-09-28T17:09:02.939Z,2.03
2023-09-28T17:11:48.269Z,2.03
2023-09-28T17:14:34.308Z,2.03
2023-09-28T17:17:20.690Z,1.77
2023-09-28T17:20:07.647Z,1.63
2023-09-28T17:22:53.791Z,2.03
2023-09-28T17:25:39.521Z,1.65
2023-09-28T17:28:26.125Z,1.50
2023-09-28T17:31:12.201Z,2.00
2023-09-28T17:33:58.414Z,2.10
2023-09-28T17:36:44.035Z,1.77
2023-09-28T17:39:29.934Z,1.77
2023-09-28T17:42:16.629Z,2.42
2023-09-28T17:45:03.993Z,1.95
2023-09-28T17:47:50.638Z,1.77
2023-09-28T17:50:38.252Z,2.03
2023-09-28T17:53:24.513Z,1.80
2023-09-28T17:56:12.896Z,1.77
2023-09-28T17:58:59.283Z,1.70
2023-09-28T18:01:44.974Z,1.88
2023-09-28T18:04:30.897Z,2.33
2023-09-28T18:07:17.420Z,1.80
2023-09-28T18:10:04.753Z,1.98
2023-09-28T18:12:50.979Z,2.17
2023-09-28T18:15:37.639Z,1.65
2023-09-28T18:18:24.159Z,1.80
2023-09-28T18:21:11.375Z,1.80
2023-09-28T18:23:57.750Z,1.70
2023-09-28T18:26:46.540Z,2.00
2023-09-28T18:29:33.351Z,2.10
2023-09-28T18:32:19.341Z,2.00
2023-09-28T18:35:07.716Z,1.73
2023-09-28T18:37:56.349Z,2.10
2023-09-28T18:40:43.432Z,1.50
2023-09-28T18:43:30.654Z,2.05
2023-09-28T18:46:19.136Z,1.88
2023-09-28T18:49:06.194Z,1.92
2023-09-28T18:51:53.020Z,2.17
2023-09-28T18:54:43.252Z,2.40
2023-09-28T18:57:29.697Z,2.35
2023-09-28T19:00:18.010Z,2.53
2023-09-28T19:03:04.471Z,2.43
2023-09-28T19:05:50.599Z,2.13
2023-09-28T19:08:37.169Z,2.60
2023-09-28T19:11:26.154Z,2.67
2023-09-28T19:16:58.244Z,2.70
2023-09-28T19:19:46.753Z,2.00
2023-09-28T19:22:35.941Z,2.70
2023-09-28T19:25:21.643Z,2.45
2023-09-28T19:28:07.414Z,2.55
2023-09-28T19:30:53.534Z,2.40
2023-09-28T19:33:41.911Z,2.10
2023-09-28T19:36:28.049Z,2.15
2023-09-28T19:39:14.479Z,2.70
2023-09-28T19:42:00.529Z,2.30
2023-09-28T19:44:45.996Z,2.50
2023-09-28T19:47:33.068Z,2.75
2023-09-28T19:50:23.191Z,2.40
2023-09-28T19:53:10.240Z,2.33
2023-09-28T19:55:56.211Z,2.45
2023-09-28T19:58:42.320Z,2.28
2023-09-28T20:01:28.177Z,2.28
2023-09-28T20:04:14.497Z,2.10
2023-09-28T20:07:00.515Z,2.25
2023-09-28T20:09:46.181Z,2.33
2023-09-28T20:12:33.058Z,2.28
2023-09-28T20:15:20.076Z,2.20
2023-09-28T20:18:06.672Z,2.15
2023-09-28T20:20:52.911Z,2.28
2023-09-28T20:23:39.246Z,2.47
2023-09-28T20:26:25.175Z,2.22
2023-09-28T20:29:11.012Z,2.20
2023-09-28T20:31:57.425Z,2.45
2023-09-28T20:34:43.593Z,2.20
2023-09-28T20:37:29.562Z,2.58
2023-09-28T20:40:15.675Z,2.10
2023-09-28T20:43:01.841Z,1.90
2023-09-28T20:45:47.479Z,2.38
2023-09-28T20:48:33.794Z,2.25
2023-09-28T20:51:20.011Z,2.42
2023-09-28T20:54:05.650Z,2.33
2023-09-28T20:56:51.755Z,1.95
2023-09-28T20:59:38.118Z,2.10
2023-09-28T21:02:24.319Z,2.33
2023-09-28T21:05:10.420Z,2.13
2023-09-28T21:07:56.094Z,2.38
2023-09-28T21:10:41.732Z,2.20
2023-09-28T21:13:27.903Z,2.47
2023-09-28T21:16:14.222Z,2.13
2023-09-28T21:19:00.184Z,2.25
2023-09-28T21:21:46.741Z,2.80
2023-09-28T21:24:32.770Z,2.53
2023-09-28T21:27:19.287Z,2.35
2023-09-28T21:30:06.458Z,2.08
2023-09-28T21:32:52.303Z,2.58
2023-09-28T21:35:38.759Z,2.53
2023-09-28T21:38:24.867Z,2.40
2023-09-28T21:41:14.801Z,2.47
2023-09-28T21:44:00.336Z,2.75
2023-09-28T21:46:45.907Z,2.70
2023-09-28T21:49:31.731Z,2.20
2023-09-28T21:52:17.565Z,1.98
2023-09-28T21:55:03.041Z,2.55
2023-09-28T21:57:48.533Z,2.60
2023-09-28T22:00:34.236Z,2.40
2023-09-28T22:03:20.419Z,2.42
2023-09-28T22:06:07.627Z,2.05
2023-09-28T22:08:53.856Z,2.30
2023-09-28T22:11:39.865Z,2.17
2023-09-28T22:14:26.028Z,2.58
2023-09-28T22:17:11.815Z,2.35
2023-09-28T22:19:57.586Z,2.60
2023-09-28T22:22:49.900Z,2.38
2023-09-28T22:25:36.047Z,2.05
2023-09-28T22:28:21.822Z,2.20
2023-09-28T22:31:07.934Z,2.75
2023-09-28T22:33:54.113Z,2.28
2023-09-28T22:36:39.441Z,2.83
2023-09-28T22:39:25.077Z,2.53
2023-09-28T22:42:11.200Z,2.70
2023-09-28T22:44:57.029Z,2.40
2023-09-28T22:47:43.646Z,2.58
2023-09-28T22:50:29.865Z,2.60
2023-09-28T22:53:15.641Z,2.70
2023-09-28T22:56:01.690Z,2.53
2023-09-28T22:58:47.796Z,2.30
2023-09-28T23:01:33.416Z,2.33
2023-09-28T23:04:20.051Z,1.95
2023-09-28T23:07:06.294Z,2.58
2023-09-28T23:09:52.416Z,2.65
2023-09-28T23:12:39.149Z,2.40
2023-09-28T23:15:24.594Z,2.47
2023-09-28T23:18:10.993Z,2.40
2023-09-28T23:20:56.984Z,2.50
2023-09-28T23:23:42.765Z,2.42
2023-09-28T23:26:30.429Z,2.13
2023-09-28T23:29:16.896Z,2.42
2023-09-28T23:32:02.817Z,2.95
2023-09-28T23:34:49.392Z,2.58
2023-09-28T23:37:35.391Z,2.03
2023-09-28T23:40:22.609Z,2.95
2023-09-28T23:43:10.121Z,2.88
2023-09-28T23:45:55.741Z,2.03
2023-09-28T23:48:42.293Z,2.50
2023-09-28T23:51:29.700Z,2.75
2023-09-28T23:54:15.981Z,2.55
2023-09-28T23:57:01.857Z,2.55
2023-09-28T23:59:48.156Z,2.40
